createdAt,value
2023-05-14T00:00:55.299Z,78.20
2023-05-14T00:01:56.342Z,78.18
2023-05-14T00:02:56.652Z,77.76
2023-05-14T00:03:56.532Z,77.58
2023-05-14T00:04:56.423Z,77.06
2023-05-14T00:05:56.426Z,76.52
2023-05-14T00:06:55.480Z,75.95
2023-05-14T00:07:56.526Z,75.51
2023-05-14T00:08:55.570Z,75.48
2023-05-14T00:09:55.584Z,75.70
2023-05-14T00:10:56.600Z,75.33
2023-05-14T00:11:55.623Z,75.67
2023-05-14T00:12:55.617Z,76.32
2023-05-14T00:13:55.644Z,76.34
2023-05-14T00:14:55.739Z,76.89
2023-05-14T00:15:56.736Z,77.58
2023-05-14T00:16:56.732Z,77.68
2023-05-14T00:17:56.822Z,77.64
2023-05-14T00:18:56.804Z,77.21
2023-05-14T00:19:56.838Z,77.59
2023-05-14T00:20:56.901Z,77.52
2023-05-14T00:21:55.887Z,78.17
2023-05-14T00:22:55.936Z,77.66
2023-05-14T00:23:56.993Z,78.16
2023-05-14T00:24:56.006Z,78.02
2023-05-14T00:25:57.042Z,78.30
2023-05-14T00:26:57.110Z,78.58
2023-05-14T00:27:57.126Z,78.69
2023-05-14T00:28:57.142Z,78.85
2023-05-14T00:29:57.208Z,78.87
2023-05-14T00:30:57.321Z,79.11
2023-05-14T00:31:56.383Z,79.14
2023-05-14T00:32:56.352Z,79.08
2023-05-14T00:33:57.362Z,78.96
2023-05-14T00:34:57.418Z,78.79
2023-05-14T00:35:56.450Z,78.72
2023-05-14T00:36:57.473Z,78.43
2023-05-14T00:37:57.591Z,78.06
2023-05-14T00:38:57.552Z,77.72
2023-05-14T00:39:57.595Z,77.45
2023-05-14T00:40:57.638Z,77.11
2023-05-14T00:41:57.705Z,76.83
2023-05-14T00:42:56.722Z,77.13
2023-05-14T00:43:57.761Z,77.32
2023-05-14T00:44:56.742Z,77.08
2023-05-14T00:45:57.768Z,77.39
2023-05-14T00:46:56.849Z,77.04
2023-05-14T00:47:57.878Z,77.43
2023-05-14T00:48:57.882Z,77.25
2023-05-14T00:49:57.925Z,77.71
2023-05-14T00:50:56.941Z,77.54
2023-05-14T00:51:57.968Z,77.62
2023-05-14T00:52:57.990Z,77.82
2023-05-14T00:53:58.032Z,77.54
2023-05-14T00:54:57.118Z,77.82
2023-05-14T00:55:57.079Z,77.91
2023-05-14T00:56:58.111Z,78.05
2023-05-14T00:57:58.125Z,77.84
2023-05-14T00:58:57.166Z,77.74
2023-05-14T00:59:57.201Z,77.62
2023-05-14T01:00:57.260Z,77.69
2023-05-14T01:01:58.228Z,77.59
2023-05-14T01:02:57.305Z,77.75
2023-05-14T01:03:57.516Z,77.98
2023-05-14T01:04:58.298Z,78.10
2023-05-14T01:05:57.290Z,77.96
2023-05-14T01:06:58.381Z,78.19
2023-05-14T01:07:57.358Z,78.41
2023-05-14T01:08:57.379Z,78.69
2023-05-14T01:09:57.432Z,78.81
2023-05-14T01:10:57.455Z,79.35
2023-05-14T01:11:57.493Z,79.47
2023-05-14T01:12:58.567Z,79.55
2023-05-14T01:13:58.585Z,79.79
2023-05-14T01:14:57.674Z,79.90
2023-05-14T01:15:57.758Z,80.16
2023-05-14T01:16:58.822Z,79.93
2023-05-14T01:17:57.868Z,79.79
2023-05-14T01:18:57.945Z,79.47
2023-05-14T01:19:58.914Z,79.16
2023-05-14T01:20:57.975Z,79.15
2023-05-14T01:21:59.049Z,78.96
2023-05-14T01:22:59.075Z,78.96
2023-05-14T01:23:59.120Z,78.81
2023-05-14T01:24:59.206Z,78.65
2023-05-14T01:25:58.221Z,78.61
2023-05-14T01:26:59.259Z,78.94
2023-05-14T01:27:59.327Z,78.91
2023-05-14T01:28:58.364Z,78.72
2023-05-14T01:29:58.442Z,79.25
2023-05-14T01:30:58.493Z,79.22
2023-05-14T01:31:59.558Z,79.29
2023-05-14T01:32:58.627Z,79.32
2023-05-14T01:33:59.597Z,79.41
2023-05-14T01:34:59.659Z,79.60
2023-05-14T01:35:58.837Z,79.75
2023-05-14T01:36:58.764Z,79.86
2023-05-14T01:37:59.816Z,79.89
2023-05-14T01:38:59.809Z,80.19
2023-05-14T01:39:59.818Z,80.57
2023-05-14T01:40:58.824Z,80.95
2023-05-14T01:41:59.859Z,81.02
2023-05-14T01:42:59.882Z,81.34
2023-05-14T01:43:58.825Z,81.42
2023-05-14T01:44:59.857Z,81.24
2023-05-14T01:45:59.911Z,81.04
2023-05-14T01:46:58.872Z,81.02
2023-05-14T01:47:59.930Z,81.26
2023-05-14T01:48:58.878Z,81.06
2023-05-14T01:49:59.932Z,80.97
2023-05-14T01:50:59.931Z,80.97
2023-05-14T01:51:58.918Z,80.98
2023-05-14T01:53:00.000Z,81.16
2023-05-14T01:53:59.926Z,81.36
2023-05-14T01:54:59.928Z,81.75
2023-05-14T01:55:59.936Z,81.87
2023-05-14T01:56:59.946Z,81.93
2023-05-14T01:57:59.983Z,81.69
2023-05-14T01:58:58.941Z,81.79
2023-05-14T01:59:58.957Z,81.70
2023-05-14T02:00:59.028Z,81.59
2023-05-14T02:02:00.052Z,81.53
2023-05-14T02:03:00.131Z,81.48
2023-05-14T02:04:00.181Z,81.44
2023-05-14T02:04:59.042Z,81.41
2023-05-14T02:06:00.111Z,81.40
2023-05-14T02:07:00.126Z,81.45
2023-05-14T02:07:59.125Z,81.64
2023-05-14T02:09:00.157Z,81.51
2023-05-14T02:10:00.188Z,81.48
2023-05-14T02:11:00.162Z,81.51
2023-05-14T02:12:00.226Z,81.61
2023-05-14T02:12:59.217Z,81.65
2023-05-14T02:13:59.228Z,81.87
2023-05-14T02:15:00.218Z,82.06
2023-05-14T02:16:00.319Z,81.76
2023-05-14T02:17:00.237Z,81.61
2023-05-14T02:17:59.228Z,81.55
2023-05-14T02:18:59.285Z,81.68
2023-05-14T02:19:59.230Z,81.51
2023-05-14T02:21:00.254Z,81.57
2023-05-14T02:22:00.270Z,81.64
2023-05-14T02:23:00.323Z,81.68
2023-05-14T02:24:00.296Z,81.86
2023-05-14T02:24:59.312Z,81.91
2023-05-14T02:26:00.314Z,82.05
2023-05-14T02:27:00.343Z,82.50
2023-05-14T02:28:00.370Z,82.11
2023-05-14T02:29:00.351Z,82.07
2023-05-14T02:30:00.364Z,82.03
2023-05-14T02:30:59.407Z,81.99
2023-05-14T02:31:59.373Z,82.00
2023-05-14T02:32:59.455Z,82.00
2023-05-14T02:34:00.440Z,82.00
2023-05-14T02:35:00.416Z,81.85
2023-05-14T02:35:59.426Z,81.84
2023-05-14T02:36:59.439Z,81.99
2023-05-14T02:37:59.438Z,81.74
2023-05-14T02:38:59.441Z,81.73
2023-05-14T02:39:59.471Z,81.63
2023-05-14T02:41:00.462Z,81.51
2023-05-14T02:41:59.447Z,81.35
2023-05-14T02:43:00.475Z,81.57
2023-05-14T02:43:59.459Z,81.20
2023-05-14T02:44:59.469Z,81.13
2023-05-14T02:46:00.538Z,81.58
2023-05-14T02:46:59.572Z,81.36
2023-05-14T02:47:59.470Z,81.37
2023-05-14T02:49:00.505Z,81.37
2023-05-14T02:50:00.557Z,81.29
2023-05-14T02:50:59.566Z,81.22
2023-05-14T02:52:00.575Z,81.12
2023-05-14T02:53:00.631Z,81.08
2023-05-14T02:54:00.639Z,81.09
2023-05-14T02:55:00.660Z,81.13
2023-05-14T02:56:00.687Z,80.98
2023-05-14T02:56:59.665Z,81.40
2023-05-14T02:58:00.739Z,81.55
2023-05-14T02:59:00.706Z,81.64
2023-05-14T03:00:00.703Z,81.77
2023-05-14T03:00:59.735Z,81.80
2023-05-14T03:02:00.727Z,81.60
2023-05-14T03:03:00.753Z,81.96
2023-05-14T03:03:59.756Z,81.80
2023-05-14T03:04:59.740Z,81.43
2023-05-14T03:05:59.753Z,81.77
2023-05-14T03:07:00.772Z,81.89
2023-05-14T03:07:59.749Z,81.55
2023-05-14T03:08:59.761Z,81.44
2023-05-14T03:09:59.815Z,81.47
2023-05-14T03:10:59.791Z,81.31
2023-05-14T03:12:00.796Z,81.57
2023-05-14T03:12:59.798Z,81.45
2023-05-14T03:13:59.811Z,81.76
2023-05-14T03:14:59.855Z,81.63
2023-05-14T03:15:59.889Z,81.72
2023-05-14T03:17:00.944Z,81.57
2023-05-14T03:17:59.954Z,81.70
2023-05-14T03:19:00.917Z,81.87
2023-05-14T03:19:59.939Z,81.68
2023-05-14T03:21:00.920Z,81.49
2023-05-14T03:22:00.958Z,81.36
2023-05-14T03:22:59.949Z,81.17
2023-05-14T03:24:00.974Z,81.31
2023-05-14T03:24:59.956Z,81.28
2023-05-14T03:26:00.970Z,81.39
2023-05-14T03:26:59.962Z,80.98
2023-05-14T03:28:00.972Z,80.74
2023-05-14T03:29:00.005Z,80.18
2023-05-14T03:30:00.982Z,80.40
2023-05-14T03:31:00.016Z,80.20
2023-05-14T03:31:59.997Z,79.99
2023-05-14T03:33:00.121Z,80.21
2023-05-14T03:34:00.012Z,80.31
2023-05-14T03:35:01.074Z,79.95
2023-05-14T03:36:00.041Z,80.32
2023-05-14T03:37:01.050Z,80.14
2023-05-14T03:38:00.073Z,80.66
2023-05-14T03:39:00.065Z,80.76
2023-05-14T03:40:00.070Z,80.86
2023-05-14T03:41:01.149Z,80.90
2023-05-14T03:42:01.092Z,81.11
2023-05-14T03:43:01.109Z,81.09
2023-05-14T03:44:01.100Z,81.00
2023-05-14T03:45:01.125Z,81.47
2023-05-14T03:46:01.133Z,81.53
2023-05-14T03:47:01.206Z,81.63
2023-05-14T03:48:00.279Z,81.73
2023-05-14T03:49:00.224Z,81.57
2023-05-14T03:50:00.236Z,81.72
2023-05-14T03:51:01.261Z,81.62
2023-05-14T03:52:00.249Z,81.94
2023-05-14T03:53:01.316Z,81.58
2023-05-14T03:54:01.287Z,81.66
2023-05-14T03:55:01.302Z,81.17
2023-05-14T03:56:00.281Z,80.85
2023-05-14T03:57:01.311Z,80.71
2023-05-14T03:58:01.331Z,80.16
2023-05-14T03:59:00.366Z,79.91
2023-05-14T04:00:01.396Z,79.74
2023-05-14T04:01:00.412Z,79.53
2023-05-14T04:02:01.413Z,79.55
2023-05-14T04:03:01.464Z,79.31
2023-05-14T04:04:00.645Z,79.15
2023-05-14T04:05:01.501Z,79.42
2023-05-14T04:06:01.474Z,79.38
2023-05-14T04:07:01.478Z,79.64
2023-05-14T04:08:00.453Z,80.00
2023-05-14T04:09:01.500Z,80.27
2023-05-14T04:10:03.359Z,80.69
2023-05-14T04:11:00.527Z,80.74
2023-05-14T04:12:00.562Z,80.90
2023-05-14T04:13:00.467Z,81.23
2023-05-14T04:14:00.485Z,81.09
2023-05-14T04:15:00.445Z,80.96
2023-05-14T04:16:01.512Z,80.88
2023-05-14T04:17:01.483Z,80.99
2023-05-14T04:18:00.460Z,81.09
2023-05-14T04:19:01.478Z,81.31
2023-05-14T04:20:01.428Z,81.37
2023-05-14T04:21:01.414Z,81.48
2023-05-14T04:22:01.413Z,81.85
2023-05-14T04:23:00.432Z,81.84
2023-05-14T04:24:01.399Z,81.89
2023-05-14T04:25:01.394Z,81.99
2023-05-14T04:26:01.388Z,81.99
2023-05-14T04:27:01.408Z,81.97
2023-05-14T04:28:00.394Z,81.97
2023-05-14T04:29:01.386Z,81.93
2023-05-14T04:30:01.336Z,82.21
2023-05-14T04:31:00.347Z,82.35
2023-05-14T04:32:01.461Z,82.34
2023-05-14T04:33:01.418Z,82.32
2023-05-14T04:34:01.315Z,81.98
2023-05-14T04:35:01.357Z,82.09
2023-05-14T04:36:00.310Z,82.24
2023-05-14T04:37:00.288Z,82.28
2023-05-14T04:38:00.280Z,82.38
2023-05-14T04:39:01.301Z,82.48
2023-05-14T04:40:01.269Z,82.10
2023-05-14T04:41:01.302Z,81.98
2023-05-14T04:42:01.269Z,81.71
2023-05-14T04:43:01.274Z,81.71
2023-05-14T04:44:01.243Z,81.42
2023-05-14T04:45:01.242Z,81.20
2023-05-14T04:46:01.247Z,81.29
2023-05-14T04:47:01.267Z,80.85
2023-05-14T04:48:00.383Z,80.54
2023-05-14T04:49:01.189Z,80.10
2023-05-14T04:50:00.376Z,79.70
2023-05-14T04:51:01.184Z,79.11
2023-05-14T04:52:01.194Z,79.14
2023-05-14T04:53:01.211Z,79.03
2023-05-14T04:54:00.248Z,78.79
2023-05-14T04:55:01.188Z,78.55
2023-05-14T04:56:01.161Z,78.48
2023-05-14T04:57:01.154Z,78.27
2023-05-14T04:58:00.148Z,77.83
2023-05-14T04:59:01.177Z,77.63
2023-05-14T05:00:01.186Z,77.52
2023-05-14T05:01:01.180Z,77.59
2023-05-14T05:02:01.249Z,77.43
2023-05-14T05:03:01.346Z,77.12
2023-05-14T05:04:01.381Z,77.00
2023-05-14T05:05:01.360Z,76.48
2023-05-14T05:06:01.361Z,76.38
2023-05-14T05:07:00.487Z,75.99
2023-05-14T05:08:01.404Z,75.81
2023-05-14T05:09:01.967Z,75.52
2023-05-14T05:10:01.468Z,75.64
2023-05-14T05:11:01.495Z,75.59
2023-05-14T05:12:01.507Z,75.99
2023-05-14T05:13:01.491Z,76.43
2023-05-14T05:14:00.610Z,75.82
2023-05-14T05:15:00.597Z,75.68
2023-05-14T05:16:00.731Z,75.76
2023-05-14T05:17:00.667Z,75.63
2023-05-14T05:18:01.750Z,75.63
2023-05-14T05:19:00.837Z,75.37
2023-05-14T05:20:01.741Z,75.32
2023-05-14T05:21:00.765Z,75.36
2023-05-14T05:22:00.766Z,75.36
2023-05-14T05:23:01.893Z,75.98
2023-05-14T05:24:00.905Z,76.25
2023-05-14T05:25:01.920Z,77.03
2023-05-14T05:26:01.985Z,77.28
2023-05-14T05:27:02.057Z,77.61
2023-05-14T05:28:01.042Z,78.01
2023-05-14T05:29:01.100Z,78.21
2023-05-14T05:30:02.227Z,78.60
2023-05-14T05:31:01.207Z,79.04
2023-05-14T05:32:01.248Z,79.05
2023-05-14T05:33:02.356Z,78.95
2023-05-14T05:34:01.363Z,79.22
2023-05-14T05:35:01.399Z,78.74
2023-05-14T05:36:02.498Z,79.16
2023-05-14T05:37:02.495Z,79.44
2023-05-14T05:38:01.940Z,79.57
2023-05-14T05:39:02.579Z,79.17
2023-05-14T05:40:01.639Z,79.39
2023-05-14T05:41:01.693Z,79.23
2023-05-14T05:42:01.758Z,78.93
2023-05-14T05:43:02.772Z,78.75
2023-05-14T05:44:01.840Z,78.23
2023-05-14T05:45:02.903Z,78.17
2023-05-14T05:46:02.938Z,78.29
2023-05-14T05:47:01.953Z,78.45
2023-05-14T05:48:03.043Z,78.43
2023-05-14T05:49:02.957Z,78.10
2023-05-14T05:50:02.005Z,78.38
2023-05-14T05:51:03.046Z,78.12
2023-05-14T05:52:03.064Z,78.28
2023-05-14T05:53:03.132Z,78.37
2023-05-14T05:54:03.116Z,78.57
2023-05-14T05:55:03.118Z,78.40
2023-05-14T05:56:03.135Z,78.39
2023-05-14T05:57:02.145Z,77.98
2023-05-14T05:58:02.204Z,78.51
2023-05-14T05:59:03.201Z,78.11
2023-05-14T06:00:03.200Z,77.97
2023-05-14T06:01:03.197Z,78.21
2023-05-14T06:02:03.287Z,78.51
2023-05-14T06:03:03.239Z,78.64
2023-05-14T06:04:02.254Z,78.77
2023-05-14T06:05:03.264Z,78.73
2023-05-14T06:06:02.270Z,78.82
2023-05-14T06:07:03.261Z,78.81
2023-05-14T06:08:02.292Z,78.68
2023-05-14T06:09:03.330Z,78.72
2023-05-14T06:10:02.337Z,78.30
2023-05-14T06:11:02.320Z,77.94
2023-05-14T06:12:03.372Z,78.16
2023-05-14T06:13:03.360Z,77.98
2023-05-14T06:14:03.377Z,77.64
2023-05-14T06:15:03.445Z,77.18
2023-05-14T06:16:02.594Z,76.98
2023-05-14T06:17:03.539Z,76.62
2023-05-14T06:18:03.629Z,75.93
2023-05-14T06:19:03.614Z,76.30
2023-05-14T06:20:02.603Z,76.85
2023-05-14T06:21:03.679Z,77.25
2023-05-14T06:22:03.717Z,77.63
2023-05-14T06:23:03.695Z,77.50
2023-05-14T06:24:03.725Z,77.74
2023-05-14T06:25:03.779Z,77.31
2023-05-14T06:26:03.776Z,76.84
2023-05-14T06:27:03.818Z,76.54
2023-05-14T06:28:03.905Z,76.04
2023-05-14T06:29:03.915Z,75.73
2023-05-14T06:30:02.946Z,75.29
2023-05-14T06:31:02.979Z,75.71
2023-05-14T06:32:03.074Z,75.93
2023-05-14T06:33:04.167Z,74.73
2023-05-14T06:34:04.118Z,74.76
2023-05-14T06:35:03.104Z,74.11
2023-05-14T06:36:03.114Z,74.08
2023-05-14T06:37:03.138Z,74.46
2023-05-14T06:38:04.187Z,74.26
2023-05-14T06:39:04.250Z,74.16
2023-05-14T06:40:03.241Z,73.88
2023-05-14T06:41:03.228Z,73.66
2023-05-14T06:42:03.243Z,73.36
2023-05-14T06:43:04.272Z,73.04
2023-05-14T06:44:04.283Z,73.32
2023-05-14T06:45:04.324Z,73.24
2023-05-14T06:46:04.341Z,72.43
2023-05-14T06:47:04.371Z,71.89
2023-05-14T06:48:03.492Z,71.85
2023-05-14T06:49:03.465Z,71.77
2023-05-14T06:50:04.511Z,71.46
2023-05-14T06:51:03.458Z,72.11
2023-05-14T06:52:03.534Z,72.34
2023-05-14T06:53:04.479Z,72.52
2023-05-14T06:54:04.528Z,72.46
2023-05-14T06:55:03.518Z,72.46
2023-05-14T06:56:03.507Z,73.49
2023-05-14T06:57:04.570Z,73.12
2023-05-14T06:58:04.627Z,73.17
2023-05-14T06:59:03.623Z,73.28
2023-05-14T07:00:04.020Z,72.81
2023-05-14T07:01:04.716Z,72.01
2023-05-14T07:02:04.738Z,71.86
2023-05-14T07:03:03.783Z,72.55
2023-05-14T07:04:04.826Z,71.71
2023-05-14T07:05:03.730Z,71.12
2023-05-14T07:06:04.749Z,70.77
2023-05-14T07:07:03.756Z,70.63
2023-05-14T07:08:04.806Z,70.43
2023-05-14T07:09:03.857Z,70.59
2023-05-14T07:10:03.958Z,70.84
2023-05-14T07:11:04.979Z,71.20
2023-05-14T07:12:04.033Z,71.05
2023-05-14T07:13:05.155Z,70.98
2023-05-14T07:14:05.130Z,71.07
2023-05-14T07:15:05.181Z,70.98
2023-05-14T07:16:05.263Z,71.07
2023-05-14T07:17:05.267Z,71.35
2023-05-14T07:18:05.326Z,71.26
2023-05-14T07:19:05.380Z,71.36
2023-05-14T07:20:05.383Z,71.32
2023-05-14T07:21:05.474Z,71.40
2023-05-14T07:22:04.474Z,71.46
2023-05-14T07:23:04.493Z,71.25
2023-05-14T07:24:05.524Z,71.22
2023-05-14T07:25:05.539Z,70.28
2023-05-14T07:26:05.613Z,71.39
2023-05-14T07:27:05.662Z,71.53
2023-05-14T07:28:04.692Z,71.47
2023-05-14T07:29:05.740Z,71.56
2023-05-14T07:30:05.789Z,71.81
2023-05-14T07:31:04.876Z,71.65
2023-05-14T07:32:04.878Z,71.90
2023-05-14T07:33:04.998Z,71.42
2023-05-14T07:34:04.937Z,71.66
2023-05-14T07:35:05.990Z,70.59
2023-05-14T07:36:05.984Z,69.65
2023-05-14T07:37:06.051Z,69.08
2023-05-14T07:38:06.131Z,69.41
2023-05-14T07:39:05.114Z,70.03
2023-05-14T07:40:05.223Z,69.45
2023-05-14T07:41:06.169Z,69.72
2023-05-14T07:42:06.211Z,70.42
2023-05-14T07:43:05.226Z,71.18
2023-05-14T07:44:06.254Z,70.12
2023-05-14T07:45:05.273Z,70.32
2023-05-14T07:46:06.290Z,70.80
2023-05-14T07:47:05.374Z,70.54
2023-05-14T07:48:06.536Z,70.70
2023-05-14T07:49:06.479Z,69.91
2023-05-14T07:50:06.540Z,69.04
2023-05-14T07:51:06.518Z,68.46
2023-05-14T07:52:06.515Z,68.01
2023-05-14T07:53:05.585Z,68.56
2023-05-14T07:54:06.604Z,68.67
2023-05-14T07:55:05.605Z,67.93
2023-05-14T07:56:06.654Z,68.20
2023-05-14T07:57:06.653Z,67.87
2023-05-14T07:58:05.725Z,68.52
2023-05-14T07:59:06.778Z,68.17
2023-05-14T08:00:06.824Z,68.02
2023-05-14T08:01:05.832Z,67.53
2023-05-14T08:02:06.906Z,67.80
2023-05-14T08:03:06.013Z,67.64
2023-05-14T08:04:05.933Z,67.59
2023-05-14T08:05:05.876Z,67.39
2023-05-14T08:06:06.844Z,67.47
2023-05-14T08:07:05.879Z,67.27
2023-05-14T08:08:05.892Z,67.72
2023-05-14T08:09:06.940Z,67.33
2023-05-14T08:10:06.940Z,66.87
2023-05-14T08:11:07.048Z,66.69
2023-05-14T08:12:06.971Z,66.38
2023-05-14T08:13:06.011Z,66.90
2023-05-14T08:14:06.079Z,66.36
2023-05-14T08:15:07.098Z,66.43
2023-05-14T08:16:07.149Z,65.68
2023-05-14T08:17:06.258Z,65.48
2023-05-14T08:18:07.190Z,65.23
2023-05-14T08:19:07.199Z,65.05
2023-05-14T08:20:06.185Z,64.88
2023-05-14T08:21:06.209Z,65.02
2023-05-14T08:22:07.216Z,64.39
2023-05-14T08:23:07.268Z,64.75
2023-05-14T08:24:06.237Z,65.77
2023-05-14T08:25:06.329Z,65.91
2023-05-14T08:26:07.353Z,65.87
2023-05-14T08:27:07.401Z,65.94
2023-05-14T08:28:06.401Z,65.80
2023-05-14T08:29:09.305Z,65.34
2023-05-14T08:30:06.362Z,64.98
2023-05-14T08:31:06.422Z,65.36
2023-05-14T08:32:19.277Z,64.77
2023-05-14T08:33:07.435Z,64.08
2023-05-14T08:34:06.319Z,64.15
2023-05-14T08:35:06.335Z,64.40
2023-05-14T08:36:07.333Z,63.88
2023-05-14T08:37:07.304Z,63.98
2023-05-14T08:38:06.303Z,64.36
2023-05-14T08:39:06.339Z,64.40
2023-05-14T08:40:06.273Z,64.37
2023-05-14T08:41:07.574Z,64.03
2023-05-14T08:42:06.277Z,64.30
2023-05-14T08:43:07.282Z,64.55
2023-05-14T08:44:06.261Z,64.49
2023-05-14T08:45:06.314Z,64.47
2023-05-14T08:46:06.333Z,64.55
2023-05-14T08:47:07.389Z,64.28
2023-05-14T08:48:07.504Z,64.17
2023-05-14T08:49:06.458Z,63.90
2023-05-14T08:50:06.477Z,64.51
2023-05-14T08:51:07.524Z,63.68
2023-05-14T08:52:06.464Z,64.62
2023-05-14T08:53:07.511Z,64.76
2023-05-14T08:54:06.527Z,64.21
2023-05-14T08:55:07.493Z,64.11
2023-05-14T08:56:06.488Z,64.27
2023-05-14T08:57:07.539Z,64.27
2023-05-14T08:58:06.544Z,64.68
2023-05-14T08:59:07.560Z,64.99
2023-05-14T09:00:06.544Z,65.11
2023-05-14T09:01:06.586Z,63.50
2023-05-14T09:02:07.856Z,63.28
2023-05-14T09:03:07.967Z,63.35
2023-05-14T09:04:06.786Z,63.05
2023-05-14T09:05:07.737Z,63.56
2023-05-14T09:06:06.796Z,62.87
2023-05-14T09:07:07.872Z,62.66
2023-05-14T09:08:07.894Z,63.17
2023-05-14T09:09:07.997Z,62.44
2023-05-14T09:10:07.979Z,61.91
2023-05-14T09:11:07.041Z,61.15
2023-05-14T09:12:08.088Z,61.42
2023-05-14T09:13:07.163Z,61.63
2023-05-14T09:14:07.221Z,62.25
2023-05-14T09:15:07.258Z,62.61
2023-05-14T09:16:08.309Z,62.57
2023-05-14T09:17:08.257Z,62.19
2023-05-14T09:18:08.339Z,61.69
2023-05-14T09:19:08.434Z,61.32
2023-05-14T09:20:08.395Z,60.39
2023-05-14T09:21:07.395Z,61.12
2023-05-14T09:22:08.568Z,61.10
2023-05-14T09:23:07.489Z,61.04
2023-05-14T09:24:08.522Z,61.18
2023-05-14T09:25:08.621Z,61.04
2023-05-14T09:26:07.652Z,61.59
2023-05-14T09:27:07.692Z,60.58
2023-05-14T09:28:07.727Z,60.81
2023-05-14T09:29:08.782Z,60.30
2023-05-14T09:30:08.818Z,60.38
2023-05-14T09:31:08.910Z,60.15
2023-05-14T09:32:07.945Z,59.34
2023-05-14T09:33:08.029Z,59.13
2023-05-14T09:34:07.937Z,59.73
2023-05-14T09:35:08.955Z,59.53
2023-05-14T09:36:07.954Z,59.89
2023-05-14T09:37:09.015Z,59.52
2023-05-14T09:38:08.007Z,59.29
2023-05-14T09:39:08.022Z,58.99
2023-05-14T09:40:08.037Z,58.32
2023-05-14T09:41:08.060Z,57.96
2023-05-14T09:42:08.177Z,58.33
2023-05-14T09:43:09.163Z,58.14
2023-05-14T09:44:09.182Z,57.74
2023-05-14T09:45:09.254Z,57.78
2023-05-14T09:46:09.250Z,58.08
2023-05-14T09:47:09.319Z,56.93
2023-05-14T09:48:09.425Z,56.99
2023-05-14T09:49:08.341Z,57.54
2023-05-14T09:50:08.417Z,57.03
2023-05-14T09:51:08.401Z,57.01
2023-05-14T09:52:09.502Z,56.45
2023-05-14T09:53:09.505Z,56.27
2023-05-14T09:54:09.538Z,55.90
2023-05-14T09:55:09.589Z,56.41
2023-05-14T09:56:08.626Z,55.13
2023-05-14T09:57:08.609Z,55.06
2023-05-14T09:58:08.623Z,54.99
2023-05-14T09:59:09.673Z,54.58
2023-05-14T10:00:09.701Z,54.70
2023-05-14T10:01:08.845Z,54.09
2023-05-14T10:02:08.775Z,54.16
2023-05-14T10:03:08.819Z,54.59
2023-05-14T10:04:09.864Z,54.84
2023-05-14T10:05:08.868Z,55.21
2023-05-14T10:06:09.901Z,55.57
2023-05-14T10:07:08.879Z,54.89
2023-05-14T10:08:09.949Z,54.19
2023-05-14T10:09:08.944Z,53.94
2023-05-14T10:10:09.999Z,53.64
2023-05-14T10:11:10.031Z,53.34
2023-05-14T10:12:10.046Z,53.69
2023-05-14T10:13:10.084Z,53.45
2023-05-14T10:14:10.132Z,53.46
2023-05-14T10:15:09.159Z,53.37
2023-05-14T10:16:10.211Z,53.11
2023-05-14T10:17:10.434Z,52.99
2023-05-14T10:18:09.412Z,53.00
2023-05-14T10:19:10.425Z,52.97
2023-05-14T10:20:09.408Z,52.72
2023-05-14T10:21:10.417Z,53.04
2023-05-14T10:22:09.429Z,52.79
2023-05-14T10:23:09.450Z,53.37
2023-05-14T10:24:09.549Z,53.27
2023-05-14T10:25:10.530Z,54.10
2023-05-14T10:26:09.527Z,53.83
2023-05-14T10:27:10.559Z,53.41
2023-05-14T10:28:09.613Z,52.71
2023-05-14T10:29:09.639Z,52.92
2023-05-14T10:30:09.686Z,52.52
2023-05-14T10:31:10.692Z,52.11
2023-05-14T10:32:10.686Z,51.80
2023-05-14T10:33:10.827Z,51.64
2023-05-14T10:34:10.830Z,51.94
2023-05-14T10:35:10.859Z,52.23
2023-05-14T10:36:09.937Z,52.42
2023-05-14T10:37:09.936Z,52.31
2023-05-14T10:38:09.956Z,52.40
2023-05-14T10:39:10.977Z,53.09
2023-05-14T10:40:11.039Z,52.95
2023-05-14T10:41:11.102Z,53.29
2023-05-14T10:42:10.097Z,53.39
2023-05-14T10:43:10.130Z,53.47
2023-05-14T10:44:10.198Z,53.06
2023-05-14T10:45:11.189Z,52.90
2023-05-14T10:46:10.242Z,53.15
2023-05-14T10:47:10.295Z,53.20
2023-05-14T10:48:11.262Z,53.77
2023-05-14T10:49:10.318Z,53.59
2023-05-14T10:50:11.327Z,53.70
2023-05-14T10:51:10.399Z,54.36
2023-05-14T10:52:10.388Z,54.25
2023-05-14T10:53:11.477Z,53.87
2023-05-14T10:54:10.466Z,54.18
2023-05-14T10:55:10.528Z,54.91
2023-05-14T10:56:11.568Z,55.26
2023-05-14T10:57:11.581Z,55.42
2023-05-14T10:58:11.618Z,55.40
2023-05-14T10:59:10.695Z,56.17
2023-05-14T11:00:10.691Z,53.98
2023-05-14T11:01:11.692Z,53.13
2023-05-14T11:02:11.761Z,52.46
2023-05-14T11:03:11.740Z,52.22
2023-05-14T11:04:11.799Z,51.67
2023-05-14T11:05:10.816Z,51.48
2023-05-14T11:06:11.797Z,52.26
2023-05-14T11:07:11.830Z,51.58
2023-05-14T11:08:11.887Z,51.74
2023-05-14T11:09:11.955Z,52.30
2023-05-14T11:10:11.985Z,51.95
2023-05-14T11:11:12.105Z,51.82
2023-05-14T11:12:11.076Z,52.10
2023-05-14T11:13:12.113Z,52.44
2023-05-14T11:14:12.164Z,52.26
2023-05-14T11:15:12.135Z,51.64
2023-05-14T11:16:22.740Z,52.17
2023-05-14T11:17:12.390Z,51.92
2023-05-14T11:18:12.269Z,51.80
2023-05-14T11:19:11.389Z,51.63
2023-05-14T11:20:11.158Z,51.30
2023-05-14T11:21:12.170Z,51.38
2023-05-14T11:22:12.186Z,51.34
2023-05-14T11:23:11.128Z,51.35
2023-05-14T11:24:12.106Z,50.91
2023-05-14T11:25:12.099Z,50.82
2023-05-14T11:26:12.158Z,50.95
2023-05-14T11:27:12.096Z,51.07
2023-05-14T11:28:12.124Z,50.80
2023-05-14T11:29:12.086Z,50.53
2023-05-14T11:30:12.065Z,50.34
2023-05-14T11:31:12.126Z,50.33
2023-05-14T11:32:11.129Z,50.00
2023-05-14T11:33:12.153Z,50.19
2023-05-14T11:34:11.047Z,50.35
2023-05-14T11:35:12.049Z,50.12
2023-05-14T11:36:12.043Z,50.75
2023-05-14T11:37:11.135Z,51.21
2023-05-14T11:38:11.064Z,51.28
2023-05-14T11:39:12.024Z,51.73
2023-05-14T11:40:12.005Z,51.56
2023-05-14T11:41:11.050Z,51.34
2023-05-14T11:42:11.999Z,51.47
2023-05-14T11:43:10.987Z,50.80
2023-05-14T11:44:12.039Z,50.54
2023-05-14T11:45:11.995Z,50.54
2023-05-14T11:46:12.000Z,51.09
2023-05-14T11:47:11.025Z,51.01
2023-05-14T11:48:12.012Z,50.96
2023-05-14T11:49:10.969Z,51.08
2023-05-14T11:50:11.028Z,50.51
2023-05-14T11:51:12.065Z,50.70
2023-05-14T11:52:11.101Z,51.08
2023-05-14T11:53:12.155Z,50.05
2023-05-14T11:54:12.177Z,50.66
2023-05-14T11:55:12.191Z,51.18
2023-05-14T11:56:11.204Z,50.72
2023-05-14T11:57:12.248Z,50.46
2023-05-14T11:58:12.221Z,51.49
2023-05-14T11:59:11.307Z,50.81
2023-05-14T12:00:12.269Z,49.85
2023-05-14T12:01:12.311Z,50.13
2023-05-14T12:02:12.377Z,50.06
2023-05-14T12:03:11.526Z,50.55
2023-05-14T12:04:11.571Z,51.07
2023-05-14T12:05:11.449Z,50.84
2023-05-14T12:06:12.487Z,51.13
2023-05-14T12:07:12.571Z,51.40
2023-05-14T12:08:11.547Z,50.81
2023-05-14T12:09:12.640Z,50.85
2023-05-14T12:10:11.624Z,51.19
2023-05-14T12:11:12.670Z,50.94
2023-05-14T12:12:11.698Z,50.62
2023-05-14T12:13:11.716Z,51.22
2023-05-14T12:14:11.744Z,51.22
2023-05-14T12:15:12.863Z,51.03
2023-05-14T12:16:11.845Z,50.96
2023-05-14T12:17:12.951Z,51.06
2023-05-14T12:18:23.360Z,51.22
2023-05-14T12:19:12.885Z,51.64
2023-05-14T12:20:12.848Z,51.45
2023-05-14T12:21:12.860Z,51.23
2023-05-14T12:22:12.806Z,51.03
2023-05-14T12:23:11.808Z,50.60
2023-05-14T12:24:12.804Z,50.86
2023-05-14T12:25:11.805Z,50.80
2023-05-14T12:26:12.796Z,50.66
2023-05-14T12:27:11.818Z,50.37
2023-05-14T12:28:11.797Z,50.51
2023-05-14T12:29:12.764Z,50.97
2023-05-14T12:30:27.540Z,51.10
2023-05-14T12:31:12.793Z,51.31
2023-05-14T12:32:12.748Z,51.18
2023-05-14T12:33:12.899Z,51.64
2023-05-14T12:34:12.741Z,51.92
2023-05-14T12:35:12.745Z,51.76
2023-05-14T12:36:21.664Z,51.47
2023-05-14T12:37:12.711Z,51.70
2023-05-14T12:38:12.706Z,51.54
2023-05-14T12:39:12.763Z,51.37
2023-05-14T12:40:11.726Z,51.48
2023-05-14T12:41:11.717Z,51.52
2023-05-14T12:42:12.707Z,52.07
2023-05-14T12:43:11.706Z,52.45
2023-05-14T12:44:12.682Z,52.08
2023-05-14T12:45:11.717Z,52.21
2023-05-14T12:46:12.663Z,52.48
2023-05-14T12:47:12.691Z,52.55
2023-05-14T12:48:12.707Z,52.82
2023-05-14T12:49:12.643Z,52.93
2023-05-14T12:50:11.662Z,53.03
2023-05-14T12:51:12.687Z,53.45
2023-05-14T12:53:11.606Z,53.11
2023-05-14T12:54:11.598Z,53.51